sensor_id;sensor_type;location;lat;lon;timestamp;P1;durP1;ratioP1;P2;durP2;ratioP2
5813;SDS011;2933;52.302;8.134;2022-12-26T00:02:12;32.33;;;29.03;;
5813;SDS011;2933;52.302;8.134;2022-12-26T00:07:16;31.43;;;27.93;;
5813;SDS011;2933;52.302;8.134;2022-12-26T00:12:17;44.57;;;28.43;;
5813;SDS011;2933;52.302;8.134;2022-12-26T00:17:19;29.17;;;26.07;;
5813;SDS011;2933;52.302;8.134;2022-12-26T00:22:21;35.27;;;28.30;;
5813;SDS011;2933;52.302;8.134;2022-12-26T00:27:23;32.63;;;29.17;;
5813;SDS011;2933;52.302;8.134;2022-12-26T00:32:24;31.43;;;27.20;;
5813;SDS011;2933;52.302;8.134;2022-12-26T00:37:27;34.60;;;27.77;;
5813;SDS011;2933;52.302;8.134;2022-12-26T00:42:29;31.00;;;27.30;;
5813;SDS011;2933;52.302;8.134;2022-12-26T00:47:30;40.77;;;25.50;;
5813;SDS011;2933;52.302;8.134;2022-12-26T00:52:33;28.57;;;25.77;;
5813;SDS011;2933;52.302;8.134;2022-12-26T00:57:37;29.60;;;25.07;;
5813;SDS011;2933;52.302;8.134;2022-12-26T01:02:38;31.10;;;25.50;;
5813;SDS011;2933;52.302;8.134;2022-12-26T01:07:44;29.00;;;26.00;;
5813;SDS011;2933;52.302;8.134;2022-12-26T01:12:45;31.60;;;25.57;;
5813;SDS011;2933;52.302;8.134;2022-12-26T01:17:47;28.03;;;24.70;;
5813;SDS011;2933;52.302;8.134;2022-12-26T01:22:50;32.83;;;27.73;;
5813;SDS011;2933;52.302;8.134;2022-12-26T01:27:51;35.90;;;29.80;;
5813;SDS011;2933;52.302;8.134;2022-12-26T01:32:53;34.17;;;29.00;;
5813;SDS011;2933;52.302;8.134;2022-12-26T01:37:56;37.13;;;31.53;;
5813;SDS011;2933;52.302;8.134;2022-12-26T01:42:57;36.67;;;28.60;;
5813;SDS011;2933;52.302;8.134;2022-12-26T01:48:00;39.00;;;31.87;;
5813;SDS011;2933;52.302;8.134;2022-12-26T01:53:09;47.33;;;31.07;;
5813;SDS011;2933;52.302;8.134;2022-12-26T01:58:15;38.40;;;31.50;;
5813;SDS011;2933;52.302;8.134;2022-12-26T02:03:21;41.40;;;33.30;;
5813;SDS011;2933;52.302;8.134;2022-12-26T02:08:41;37.57;;;30.90;;
5813;SDS011;2933;52.302;8.134;2022-12-26T02:13:44;44.60;;;32.47;;
5813;SDS011;2933;52.302;8.134;2022-12-26T02:18:46;42.63;;;32.13;;
5813;SDS011;2933;52.302;8.134;2022-12-26T02:24:02;41.23;;;31.70;;
5813;SDS011;2933;52.302;8.134;2022-12-26T02:35:11;35.50;;;31.23;;
5813;SDS011;2933;52.302;8.134;2022-12-26T02:40:28;36.97;;;30.93;;
5813;SDS011;2933;52.302;8.134;2022-12-26T02:45:42;34.63;;;30.93;;
5813;SDS011;2933;52.302;8.134;2022-12-26T02:51:19;41.87;;;32.83;;
5813;SDS011;2933;52.302;8.134;2022-12-26T02:56:51;37.63;;;29.80;;
5813;SDS011;2933;52.302;8.134;2022-12-26T03:02:17;39.83;;;31.10;;
5813;SDS011;2933;52.302;8.134;2022-12-26T03:07:43;39.83;;;30.50;;
5813;SDS011;2933;52.302;8.134;2022-12-26T03:13:04;32.40;;;28.73;;
5813;SDS011;2933;52.302;8.134;2022-12-26T03:18:10;35.97;;;29.47;;
5813;SDS011;2933;52.302;8.134;2022-12-26T03:23:14;33.67;;;28.10;;
5813;SDS011;2933;52.302;8.134;2022-12-26T03:28:16;37.73;;;29.00;;
5813;SDS011;2933;52.302;8.134;2022-12-26T03:33:19;33.50;;;28.50;;
5813;SDS011;2933;52.302;8.134;2022-12-26T03:38:46;32.83;;;27.00;;
5813;SDS011;2933;52.302;8.134;2022-12-26T03:43:58;30.10;;;26.80;;
5813;SDS011;2933;52.302;8.134;2022-12-26T03:49:32;33.90;;;26.90;;
5813;SDS011;2933;52.302;8.134;2022-12-26T03:55:01;30.63;;;26.30;;
5813;SDS011;2933;52.302;8.134;2022-12-26T04:00:24;28.53;;;25.50;;
5813;SDS011;2933;52.302;8.134;2022-12-26T04:05:46;29.10;;;26.00;;
5813;SDS011;2933;52.302;8.134;2022-12-26T04:11:10;30.07;;;24.67;;
5813;SDS011;2933;52.302;8.134;2022-12-26T04:16:34;30.23;;;25.43;;
5813;SDS011;2933;52.302;8.134;2022-12-26T04:21:58;28.20;;;24.20;;
5813;SDS011;2933;52.302;8.134;2022-12-26T04:27:25;30.87;;;24.60;;
5813;SDS011;2933;52.302;8.134;2022-12-26T04:32:47;29.40;;;26.40;;
5813;SDS011;2933;52.302;8.134;2022-12-26T04:38:07;30.83;;;26.07;;
5813;SDS011;2933;52.302;8.134;2022-12-26T04:43:32;37.43;;;26.83;;
5813;SDS011;2933;52.302;8.134;2022-12-26T04:48:53;30.70;;;20.70;;
5813;SDS011;2933;52.302;8.134;2022-12-26T04:54:14;30.50;;;22.60;;
5813;SDS011;2933;52.302;8.134;2022-12-26T04:59:17;33.70;;;23.30;;
5813;SDS011;2933;52.302;8.134;2022-12-26T05:04:19;32.80;;;23.20;;
5813;SDS011;2933;52.302;8.134;2022-12-26T05:09:38;33.73;;;23.60;;
5813;SDS011;2933;52.302;8.134;2022-12-26T05:14:41;35.87;;;24.97;;
5813;SDS011;2933;52.302;8.134;2022-12-26T05:19:43;35.57;;;23.93;;
5813;SDS011;2933;52.302;8.134;2022-12-26T05:25:02;31.23;;;24.10;;
5813;SDS011;2933;52.302;8.134;2022-12-26T05:30:23;29.23;;;21.30;;
5813;SDS011;2933;52.302;8.134;2022-12-26T05:35:25;32.33;;;22.03;;
5813;SDS011;2933;52.302;8.134;2022-12-26T05:40:26;40.87;;;23.53;;
5813;SDS011;2933;52.302;8.134;2022-12-26T05:45:29;40.40;;;23.97;;
5813;SDS011;2933;52.302;8.134;2022-12-26T05:50:31;37.17;;;23.50;;
5813;SDS011;2933;52.302;8.134;2022-12-26T05:55:32;32.97;;;23.40;;
5813;SDS011;2933;52.302;8.134;2022-12-26T06:00:35;36.70;;;23.80;;
5813;SDS011;2933;52.302;8.134;2022-12-26T06:05:37;39.87;;;22.50;;
5813;SDS011;2933;52.302;8.134;2022-12-26T06:10:38;31.40;;;21.20;;
5813;SDS011;2933;52.302;8.134;2022-12-26T06:15:41;27.47;;;18.63;;
5813;SDS011;2933;52.302;8.134;2022-12-26T06:20:42;28.23;;;18.33;;
5813;SDS011;2933;52.302;8.134;2022-12-26T06:25:44;34.30;;;19.33;;
5813;SDS011;2933;52.302;8.134;2022-12-26T06:30:56;31.20;;;17.70;;
5813;SDS011;2933;52.302;8.134;2022-12-26T06:36:03;38.23;;;19.87;;
5813;SDS011;2933;52.302;8.134;2022-12-26T06:41:06;33.10;;;18.37;;
5813;SDS011;2933;52.302;8.134;2022-12-26T06:46:11;37.70;;;21.83;;
5813;SDS011;2933;52.302;8.134;2022-12-26T06:51:14;39.90;;;21.00;;
5813;SDS011;2933;52.302;8.134;2022-12-26T06:56:19;34.17;;;22.20;;
5813;SDS011;2933;52.302;8.134;2022-12-26T07:01:23;35.10;;;20.60;;
5813;SDS011;2933;52.302;8.134;2022-12-26T07:06:27;36.57;;;20.80;;
5813;SDS011;2933;52.302;8.134;2022-12-26T07:11:31;41.57;;;21.27;;
5813;SDS011;2933;52.302;8.134;2022-12-26T07:16:35;43.63;;;23.07;;
5813;SDS011;2933;52.302;8.134;2022-12-26T07:21:38;38.77;;;22.27;;
5813;SDS011;2933;52.302;8.134;2022-12-26T07:26:40;41.60;;;22.47;;
5813;SDS011;2933;52.302;8.134;2022-12-26T07:31:43;35.83;;;20.63;;
5813;SDS011;2933;52.302;8.134;2022-12-26T07:36:44;37.17;;;22.23;;
5813;SDS011;2933;52.302;8.134;2022-12-26T07:41:46;31.67;;;21.20;;
5813;SDS011;2933;52.302;8.134;2022-12-26T07:47:01;31.33;;;20.33;;
5813;SDS011;2933;52.302;8.134;2022-12-26T07:52:03;37.57;;;20.20;;
5813;SDS011;2933;52.302;8.134;2022-12-26T07:57:04;27.17;;;19.10;;
5813;SDS011;2933;52.302;8.134;2022-12-26T08:02:09;27.07;;;17.63;;
5813;SDS011;2933;52.302;8.134;2022-12-26T08:07:11;24.40;;;17.90;;
5813;SDS011;2933;52.302;8.134;2022-12-26T08:12:12;27.43;;;18.50;;
5813;SDS011;2933;52.302;8.134;2022-12-26T08:17:15;24.87;;;17.83;;
5813;SDS011;2933;52.302;8.134;2022-12-26T08:22:17;22.63;;;16.70;;
5813;SDS011;2933;52.302;8.134;2022-12-26T08:27:18;23.90;;;17.60;;
5813;SDS011;2933;52.302;8.134;2022-12-26T08:32:21;22.47;;;18.07;;
5813;SDS011;2933;52.302;8.134;2022-12-26T08:37:23;28.20;;;17.27;;
5813;SDS011;2933;52.302;8.134;2022-12-26T08:42:24;23.93;;;17.90;;
5813;SDS011;2933;52.302;8.134;2022-12-26T08:47:27;17.53;;;15.03;;
5813;SDS011;2933;52.302;8.134;2022-12-26T08:52:29;18.23;;;16.20;;
5813;SDS011;2933;52.302;8.134;2022-12-26T08:57:30;22.10;;;16.13;;
5813;SDS011;2933;52.302;8.134;2022-12-26T09:02:33;18.50;;;14.70;;
5813;SDS011;2933;52.302;8.134;2022-12-26T09:07:35;17.20;;;13.70;;
5813;SDS011;2933;52.302;8.134;2022-12-26T09:12:36;15.47;;;13.20;;
5813;SDS011;2933;52.302;8.134;2022-12-26T09:17:39;15.40;;;11.90;;
5813;SDS011;2933;52.302;8.134;2022-12-26T09:22:40;12.10;;;10.90;;
5813;SDS011;2933;52.302;8.134;2022-12-26T09:27:51;15.40;;;9.63;;
5813;SDS011;2933;52.302;8.134;2022-12-26T09:32:55;10.07;;;9.00;;
5813;SDS011;2933;52.302;8.134;2022-12-26T09:37:56;14.03;;;9.90;;
5813;SDS011;2933;52.302;8.134;2022-12-26T09:43:00;11.13;;;8.27;;
5813;SDS011;2933;52.302;8.134;2022-12-26T09:48:13;8.97;;;8.10;;
5813;SDS011;2933;52.302;8.134;2022-12-26T09:53:22;10.50;;;7.77;;
5813;SDS011;2933;52.302;8.134;2022-12-26T09:58:30;13.13;;;7.80;;
5813;SDS011;2933;52.302;8.134;2022-12-26T10:03:36;6.80;;;6.20;;
5813;SDS011;2933;52.302;8.134;2022-12-26T10:08:52;7.33;;;6.53;;
5813;SDS011;2933;52.302;8.134;2022-12-26T10:14:00;21.10;;;7.27;;
5813;SDS011;2933;52.302;8.134;2022-12-26T10:19:14;5.17;;;4.77;;
5813;SDS011;2933;52.302;8.134;2022-12-26T10:24:28;7.40;;;4.73;;
5813;SDS011;2933;52.302;8.134;2022-12-26T10:29:35;4.70;;;4.40;;
5813;SDS011;2933;52.302;8.134;2022-12-26T10:34:41;9.73;;;4.93;;
5813;SDS011;2933;52.302;8.134;2022-12-26T10:39:46;6.07;;;4.10;;
5813;SDS011;2933;52.302;8.134;2022-12-26T10:44:51;7.73;;;3.43;;
5813;SDS011;2933;52.302;8.134;2022-12-26T10:49:55;6.67;;;3.40;;
5813;SDS011;2933;52.302;8.134;2022-12-26T10:54:59;10.50;;;3.50;;
5813;SDS011;2933;52.302;8.134;2022-12-26T11:00:02;8.30;;;3.90;;
5813;SDS011;2933;52.302;8.134;2022-12-26T11:05:14;4.33;;;3.93;;
5813;SDS011;2933;52.302;8.134;2022-12-26T11:10:23;3.83;;;3.53;;
5813;SDS011;2933;52.302;8.134;2022-12-26T11:15:31;3.47;;;3.17;;
5813;SDS011;2933;52.302;8.134;2022-12-26T11:20:37;5.13;;;2.80;;
5813;SDS011;2933;52.302;8.134;2022-12-26T11:25:46;4.27;;;2.60;;
5813;SDS011;2933;52.302;8.134;2022-12-26T11:30:49;3.10;;;2.73;;
5813;SDS011;2933;52.302;8.134;2022-12-26T11:35:54;2.67;;;2.33;;
5813;SDS011;2933;52.302;8.134;2022-12-26T11:41:03;7.47;;;2.90;;
5813;SDS011;2933;52.302;8.134;2022-12-26T11:46:31;5.10;;;2.70;;
5813;SDS011;2933;52.302;8.134;2022-12-26T11:51:39;3.50;;;3.27;;
5813;SDS011;2933;52.302;8.134;2022-12-26T11:56:45;5.60;;;3.43;;
5813;SDS011;2933;52.302;8.134;2022-12-26T12:01:47;3.33;;;2.97;;
5813;SDS011;2933;52.302;8.134;2022-12-26T12:07:13;4.97;;;3.40;;
5813;SDS011;2933;52.302;8.134;2022-12-26T12:12:21;5.33;;;4.30;;
5813;SDS011;2933;52.302;8.134;2022-12-26T12:17:30;4.70;;;4.50;;
5813;SDS011;2933;52.302;8.134;2022-12-26T12:22:45;5.90;;;5.53;;
5813;SDS011;2933;52.302;8.134;2022-12-26T12:27:58;12.50;;;5.50;;
5813;SDS011;2933;52.302;8.134;2022-12-26T12:33:15;5.60;;;5.13;;
5813;SDS011;2933;52.302;8.134;2022-12-26T12:38:29;6.10;;;5.80;;
5813;SDS011;2933;52.302;8.134;2022-12-26T12:43:35;5.37;;;4.90;;
5813;SDS011;2933;52.302;8.134;2022-12-26T12:48:50;8.67;;;2.33;;
5813;SDS011;2933;52.302;8.134;2022-12-26T12:54:14;4.60;;;2.43;;
5813;SDS011;2933;52.302;8.134;2022-12-26T12:59:35;6.80;;;1.90;;
5813;SDS011;2933;52.302;8.134;2022-12-26T13:04:46;4.60;;;1.00;;
5813;SDS011;2933;52.302;8.134;2022-12-26T13:09:56;3.63;;;1.10;;
5813;SDS011;2933;52.302;8.134;2022-12-26T13:15:01;5.50;;;1.40;;
5813;SDS011;2933;52.302;8.134;2022-12-26T13:20:11;6.70;;;1.00;;
5813;SDS011;2933;52.302;8.134;2022-12-26T13:25:18;4.97;;;0.90;;
5813;SDS011;2933;52.302;8.134;2022-12-26T13:30:22;5.13;;;1.50;;
5813;SDS011;2933;52.302;8.134;2022-12-26T13:40:55;1.67;;;0.90;;
5813;SDS011;2933;52.302;8.134;2022-12-26T13:51:58;7.30;;;1.50;;
5813;SDS011;2933;52.302;8.134;2022-12-26T13:57:25;4.67;;;1.37;;
5813;SDS011;2933;52.302;8.134;2022-12-26T14:08:13;9.87;;;1.93;;
5813;SDS011;2933;52.302;8.134;2022-12-26T14:18:56;7.10;;;1.70;;
5813;SDS011;2933;52.302;8.134;2022-12-26T14:24:08;1.33;;;0.97;;
5813;SDS011;2933;52.302;8.134;2022-12-26T14:29:26;4.10;;;1.30;;
5813;SDS011;2933;52.302;8.134;2022-12-26T14:34:43;6.67;;;1.00;;
5813;SDS011;2933;52.302;8.134;2022-12-26T14:40:01;8.27;;;1.20;;
5813;SDS011;2933;52.302;8.134;2022-12-26T14:45:39;6.40;;;1.00;;
5813;SDS011;2933;52.302;8.134;2022-12-26T14:50:47;1.27;;;0.70;;
5813;SDS011;2933;52.302;8.134;2022-12-26T14:55:50;2.20;;;0.80;;
5813;SDS011;2933;52.302;8.134;2022-12-26T15:00:55;11.50;;;1.40;;
5813;SDS011;2933;52.302;8.134;2022-12-26T15:12:03;8.47;;;1.27;;
5813;SDS011;2933;52.302;8.134;2022-12-26T15:17:23;5.70;;;1.30;;
5813;SDS011;2933;52.302;8.134;2022-12-26T15:22:47;4.77;;;1.20;;
5813;SDS011;2933;52.302;8.134;2022-12-26T15:33:57;9.37;;;1.67;;
5813;SDS011;2933;52.302;8.134;2022-12-26T15:39:02;11.60;;;1.77;;
5813;SDS011;2933;52.302;8.134;2022-12-26T15:44:17;8.40;;;2.77;;
5813;SDS011;2933;52.302;8.134;2022-12-26T15:49:39;14.90;;;3.47;;
5813;SDS011;2933;52.302;8.134;2022-12-26T15:55:07;14.70;;;2.93;;
5813;SDS011;2933;52.302;8.134;2022-12-26T16:00:20;4.10;;;1.87;;
5813;SDS011;2933;52.302;8.134;2022-12-26T16:05:30;6.20;;;1.33;;
5813;SDS011;2933;52.302;8.134;2022-12-26T16:10:37;5.93;;;1.47;;
5813;SDS011;2933;52.302;8.134;2022-12-26T16:15:43;10.77;;;1.53;;
5813;SDS011;2933;52.302;8.134;2022-12-26T16:20:47;7.60;;;2.00;;
5813;SDS011;2933;52.302;8.134;2022-12-26T16:26:14;6.50;;;1.43;;
5813;SDS011;2933;52.302;8.134;2022-12-26T16:31:18;3.93;;;1.00;;
5813;SDS011;2933;52.302;8.134;2022-12-26T16:36:23;10.93;;;1.60;;
5813;SDS011;2933;52.302;8.134;2022-12-26T16:41:27;3.00;;;1.53;;
5813;SDS011;2933;52.302;8.134;2022-12-26T16:46:30;8.30;;;2.00;;
5813;SDS011;2933;52.302;8.134;2022-12-26T16:51:37;5.50;;;1.50;;
5813;SDS011;2933;52.302;8.134;2022-12-26T16:56:40;13.37;;;2.40;;
5813;SDS011;2933;52.302;8.134;2022-12-26T17:01:44;5.77;;;2.10;;
5813;SDS011;2933;52.302;8.134;2022-12-26T17:06:51;12.63;;;2.30;;
5813;SDS011;2933;52.302;8.134;2022-12-26T17:11:55;9.67;;;1.93;;
5813;SDS011;2933;52.302;8.134;2022-12-26T17:17:00;10.23;;;2.13;;
5813;SDS011;2933;52.302;8.134;2022-12-26T17:22:21;6.37;;;2.27;;
5813;SDS011;2933;52.302;8.134;2022-12-26T17:27:28;7.30;;;2.20;;
5813;SDS011;2933;52.302;8.134;2022-12-26T17:32:32;9.80;;;2.20;;
5813;SDS011;2933;52.302;8.134;2022-12-26T17:37:37;10.33;;;2.27;;
5813;SDS011;2933;52.302;8.134;2022-12-26T17:42:42;8.20;;;1.90;;
5813;SDS011;2933;52.302;8.134;2022-12-26T17:47:46;14.40;;;2.20;;
5813;SDS011;2933;52.302;8.134;2022-12-26T17:52:51;16.33;;;2.10;;
5813;SDS011;2933;52.302;8.134;2022-12-26T17:57:53;8.20;;;1.70;;
5813;SDS011;2933;52.302;8.134;2022-12-26T18:02:54;16.87;;;2.10;;
5813;SDS011;2933;52.302;8.134;2022-12-26T18:07:58;7.63;;;1.67;;
5813;SDS011;2933;52.302;8.134;2022-12-26T18:13:00;14.80;;;1.77;;
5813;SDS011;2933;52.302;8.134;2022-12-26T18:18:01;8.63;;;1.87;;
5813;SDS011;2933;52.302;8.134;2022-12-26T18:23:07;10.97;;;2.17;;
5813;SDS011;2933;52.302;8.134;2022-12-26T18:28:12;6.40;;;1.87;;
5813;SDS011;2933;52.302;8.134;2022-12-26T18:33:14;9.60;;;1.83;;
5813;SDS011;2933;52.302;8.134;2022-12-26T18:38:18;15.23;;;2.50;;
5813;SDS011;2933;52.302;8.134;2022-12-26T18:43:20;6.57;;;2.33;;
5813;SDS011;2933;52.302;8.134;2022-12-26T18:48:22;6.10;;;1.50;;
5813;SDS011;2933;52.302;8.134;2022-12-26T18:53:25;3.10;;;1.70;;
5813;SDS011;2933;52.302;8.134;2022-12-26T18:58:26;4.43;;;2.17;;
5813;SDS011;2933;52.302;8.134;2022-12-26T19:03:28;7.67;;;2.40;;
5813;SDS011;2933;52.302;8.134;2022-12-26T19:08:30;4.40;;;1.77;;
5813;SDS011;2933;52.302;8.134;2022-12-26T19:13:32;12.87;;;2.50;;
5813;SDS011;2933;52.302;8.134;2022-12-26T19:18:35;6.87;;;2.50;;
5813;SDS011;2933;52.302;8.134;2022-12-26T19:23:38;8.50;;;2.47;;
5813;SDS011;2933;52.302;8.134;2022-12-26T19:28:39;6.63;;;2.60;;
5813;SDS011;2933;52.302;8.134;2022-12-26T19:33:41;7.63;;;2.40;;
5813;SDS011;2933;52.302;8.134;2022-12-26T19:38:44;9.07;;;1.77;;
5813;SDS011;2933;52.302;8.134;2022-12-26T19:43:45;8.20;;;1.80;;
5813;SDS011;2933;52.302;8.134;2022-12-26T19:48:47;5.37;;;1.73;;
5813;SDS011;2933;52.302;8.134;2022-12-26T19:53:50;9.63;;;2.27;;
5813;SDS011;2933;52.302;8.134;2022-12-26T19:58:51;6.30;;;1.90;;
5813;SDS011;2933;52.302;8.134;2022-12-26T20:03:54;5.53;;;1.40;;
5813;SDS011;2933;52.302;8.134;2022-12-26T20:08:58;2.00;;;1.40;;
5813;SDS011;2933;52.302;8.134;2022-12-26T20:14:02;11.67;;;1.70;;
5813;SDS011;2933;52.302;8.134;2022-12-26T20:19:05;10.67;;;1.87;;
5813;SDS011;2933;52.302;8.134;2022-12-26T20:24:10;5.40;;;2.30;;
5813;SDS011;2933;52.302;8.134;2022-12-26T20:29:11;8.43;;;2.03;;
5813;SDS011;2933;52.302;8.134;2022-12-26T20:34:13;7.87;;;1.90;;
5813;SDS011;2933;52.302;8.134;2022-12-26T20:39:17;21.23;;;2.43;;
5813;SDS011;2933;52.302;8.134;2022-12-26T20:44:19;11.33;;;2.47;;
5813;SDS011;2933;52.302;8.134;2022-12-26T20:49:20;5.73;;;2.10;;
5813;SDS011;2933;52.302;8.134;2022-12-26T20:54:23;4.70;;;1.80;;
5813;SDS011;2933;52.302;8.134;2022-12-26T20:59:25;3.63;;;2.07;;
5813;SDS011;2933;52.302;8.134;2022-12-26T21:04:27;7.03;;;2.00;;
5813;SDS011;2933;52.302;8.134;2022-12-26T21:09:30;8.77;;;1.70;;
5813;SDS011;2933;52.302;8.134;2022-12-26T21:14:31;10.70;;;2.03;;
5813;SDS011;2933;52.302;8.134;2022-12-26T21:19:33;4.70;;;1.93;;
5813;SDS011;2933;52.302;8.134;2022-12-26T21:24:36;2.70;;;1.77;;
5813;SDS011;2933;52.302;8.134;2022-12-26T21:29:37;3.50;;;1.70;;
5813;SDS011;2933;52.302;8.134;2022-12-26T21:34:39;4.37;;;1.97;;
5813;SDS011;2933;52.302;8.134;2022-12-26T21:39:42;2.53;;;1.77;;
5813;SDS011;2933;52.302;8.134;2022-12-26T21:44:43;4.87;;;1.60;;
5813;SDS011;2933;52.302;8.134;2022-12-26T21:49:45;10.07;;;2.10;;
5813;SDS011;2933;52.302;8.134;2022-12-26T21:54:48;6.60;;;1.27;;
5813;SDS011;2933;52.302;8.134;2022-12-26T22:00:07;4.27;;;1.43;;
5813;SDS011;2933;52.302;8.134;2022-12-26T22:05:10;5.80;;;1.80;;
5813;SDS011;2933;52.302;8.134;2022-12-26T22:10:13;1.80;;;1.53;;
5813;SDS011;2933;52.302;8.134;2022-12-26T22:15:28;4.33;;;1.77;;
5813;SDS011;2933;52.302;8.134;2022-12-26T22:20:48;6.30;;;1.33;;
5813;SDS011;2933;52.302;8.134;2022-12-26T22:25:54;3.60;;;1.83;;
5813;SDS011;2933;52.302;8.134;2022-12-26T22:30:56;3.33;;;1.60;;
5813;SDS011;2933;52.302;8.134;2022-12-26T22:36:02;2.80;;;1.50;;
5813;SDS011;2933;52.302;8.134;2022-12-26T22:41:06;4.83;;;1.33;;
5813;SDS011;2933;52.302;8.134;2022-12-26T22:46:07;8.33;;;2.00;;
5813;SDS011;2933;52.302;8.134;2022-12-26T22:51:14;2.00;;;1.43;;
5813;SDS011;2933;52.302;8.134;2022-12-26T22:56:17;5.37;;;2.40;;
5813;SDS011;2933;52.302;8.134;2022-12-26T23:01:19;12.00;;;2.23;;
5813;SDS011;2933;52.302;8.134;2022-12-26T23:06:24;6.83;;;2.17;;
5813;SDS011;2933;52.302;8.134;2022-12-26T23:11:29;6.90;;;1.87;;
5813;SDS011;2933;52.302;8.134;2022-12-26T23:16:33;15.50;;;2.40;;
5813;SDS011;2933;52.302;8.134;2022-12-26T23:21:39;6.33;;;1.97;;
5813;SDS011;2933;52.302;8.134;2022-12-26T23:26:46;6.73;;;2.10;;
5813;SDS011;2933;52.302;8.134;2022-12-26T23:31:49;7.67;;;1.93;;
5813;SDS011;2933;52.302;8.134;2022-12-26T23:36:50;7.13;;;2.30;;
5813;SDS011;2933;52.302;8.134;2022-12-26T23:41:53;4.03;;;1.43;;
5813;SDS011;2933;52.302;8.134;2022-12-26T23:46:55;19.17;;;2.17;;
5813;SDS011;2933;52.302;8.134;2022-12-26T23:51:57;17.83;;;1.90;;
5813;SDS011;2933;52.302;8.134;2022-12-26T23:57:00;6.40;;;2.43;;
